Time;durP1;ratioP1;P1;durP2;ratioP2;P2;SDS_P1;SDS_P2;PMS_P1;PMS_P2;Temp;Humidity;BMP_temperature;BMP_pressure;BME280_temperature;BME280_humidity;BME280_pressure;Samples;Min_cycle;Max_cycle;Signal;HPM_P1;HPM_P2
2022/11/27 01:34:15;;;;;;;1.90;1.03;;;;;;;9.83;100.00;102230.00;2258542;54;10002205;-65
2022/11/27 01:36:45;;;;;;;5.07;1.47;;;;;;;8.63;100.00;102248.31;2619274;54;20767;-65
2022/11/27 01:39:18;;;;;;;3.70;0.87;;;;;;;9.20;100.00;102238.03;2618963;47;20149;-64
2022/11/27 01:41:50;;;;;;;0.00;0.00;;;;;;;10.32;100.00;102243.94;2619392;54;20145;-64
2022/11/27 01:44:50;;;;;;;0.10;0.10;;;;;;;10.91;100.00;102252.25;2619366;54;20769;-64
2022/11/27 01:47:31;;;;;;;4.70;1.40;;;;;;;10.35;100.00;102241.28;2618896;54;20702;-64
2022/11/27 01:50:12;;;;;;;0.63;0.40;;;;;;;10.73;100.00;102252.88;2618565;54;20669;-64
2022/11/27 01:52:46;;;;;;;0.57;0.50;;;;;;;11.28;100.00;102238.69;2618668;54;20153;-64
2022/11/27 01:55:22;;;;;;;0.47;0.47;;;;;;;11.31;100.00;102240.34;2618556;39;20557;-64
2022/11/27 01:57:56;;;;;;;0.10;0.10;;;;;;;11.75;100.00;102234.28;2618949;54;20244;-64
2022/11/27 02:00:27;;;;;;;1.37;1.30;;;;;;;11.50;100.00;102247.38;2619371;54;20195;-64
2022/11/27 02:02:57;;;;;;;3.77;0.70;;;;;;;11.76;100.00;102235.94;2618396;54;20150;-64
2022/11/27 02:05:32;;;;;;;0.30;0.30;;;;;;;11.96;100.00;102241.19;2618464;54;20150;-64
2022/11/27 02:08:07;;;;;;;1.33;1.27;;;;;;;11.60;100.00;102240.88;2619301;54;20161;-65
2022/11/27 02:10:48;;;;;;;0.00;0.00;;;;;;;10.82;100.00;102246.53;2619207;54;20156;-65
2022/11/27 02:13:28;;;;;;;1.80;0.93;;;;;;;10.94;100.00;102243.47;2619849;39;20565;-65
2022/11/27 02:16:07;;;;;;;0.17;0.17;;;;;;;10.69;100.00;102239.19;2619708;54;20141;-65
2022/11/27 02:18:49;;;;;;;1.43;1.43;;;;;;;9.48;100.00;102234.59;2619590;51;20150;-63
2022/11/27 02:21:35;;;;;;;0.97;0.87;;;;;;;9.23;100.00;102230.16;2619116;54;20142;-63
2022/11/27 02:24:35;;;;;;;1.33;0.83;;;;;;;8.48;100.00;102240.97;2619046;54;20153;-64
2022/11/27 02:27:34;;;;;;;0.60;0.60;;;;;;;8.45;100.00;102241.91;2617858;54;20153;-64
2022/11/27 02:30:08;;;;;;;2.03;1.57;;;;;;;8.41;100.00;102235.13;2619329;54;20149;-64
2022/11/27 02:32:45;;;;;;;8.50;2.13;;;;;;;8.58;100.00;102239.00;2619431;39;20605;-63
2022/11/27 02:35:21;;;;;;;0.87;0.87;;;;;;;9.23;100.00;102232.75;2618789;54;20290;-65
2022/11/27 02:37:55;;;;;;;0.93;0.90;;;;;;;8.79;100.00;102225.44;2618817;39;20529;-64
2022/11/27 02:40:31;;;;;;;3.47;1.83;;;;;;;8.79;100.00;102228.88;2618581;54;20153;-64
2022/11/27 02:43:08;;;;;;;0.87;0.83;;;;;;;9.71;100.00;102221.75;2618861;54;20157;-64
2022/11/27 02:45:41;;;;;;;0.83;0.67;;;;;;;10.15;100.00;102221.19;2619143;54;20134;-65
2022/11/27 02:48:14;;;;;;;2.13;1.47;;;;;;;10.56;100.00;102230.13;2618561;54;20180;-65
2022/11/27 02:50:47;;;;;;;1.07;0.23;;;;;;;10.25;100.00;102229.50;2619238;54;20156;-65
2022/11/27 02:53:22;;;;;;;3.37;2.10;;;;;;;9.32;100.00;102227.31;2619556;54;20154;-65
2022/11/27 02:55:55;;;;;;;1.37;1.30;;;;;;;9.41;100.00;102223.59;2618924;54;20140;-63
2022/11/27 02:58:29;;;;;;;0.20;0.20;;;;;;;9.60;100.00;102222.13;2618735;54;20796;-65
2022/11/27 03:01:02;;;;;;;1.00;0.97;;;;;;;8.87;100.00;102218.28;2617872;54;20193;-65
2022/11/27 03:03:39;;;;;;;3.33;1.57;;;;;;;8.04;100.00;102212.78;2617595;54;20160;-65
2022/11/27 03:06:13;;;;;;;3.43;2.40;;;;;;;7.28;100.00;102193.97;2619173;54;20145;-65
2022/11/27 03:08:52;;;;;;;0.70;0.70;;;;;;;7.17;100.00;102207.09;2619714;54;20145;-64
2022/11/27 03:11:23;;;;;;;1.30;0.97;;;;;;;8.16;100.00;102205.56;2618652;54;20153;-65
2022/11/27 03:13:57;;;;;;;1.10;0.30;;;;;;;10.33;100.00;102210.19;2618012;54;20145;-65
2022/11/27 03:16:37;;;;;;;0.73;0.73;;;;;;;10.90;100.00;102223.72;2618741;54;20149;-65
2022/11/27 03:19:17;;;;;;;3.40;3.10;;;;;;;11.18;100.00;102207.03;2618814;54;20150;-65
2022/11/27 03:21:50;;;;;;;0.20;0.20;;;;;;;11.00;100.00;102201.69;2618384;54;20156;-65
2022/11/27 03:24:21;;;;;;;0.33;0.33;;;;;;;10.08;100.00;102222.25;2618663;54;20274;-65
2022/11/27 03:26:52;;;;;;;0.10;0.10;;;;;;;11.61;100.00;102231.34;2618994;54;20160;-65
2022/11/27 03:29:26;;;;;;;2.83;0.47;;;;;;;11.59;100.00;102223.63;2618292;54;20189;-65
2022/11/27 03:31:59;;;;;;;0.90;0.90;;;;;;;11.80;100.00;102208.06;2618821;39;20545;-67
2022/11/27 03:34:30;;;;;;;2.10;1.20;;;;;;;11.20;100.00;102205.22;2618805;54;20156;-65
2022/11/27 03:37:00;;;;;;;0.13;0.07;;;;;;;11.40;100.00;102208.78;2618142;54;20149;-64
2022/11/27 03:39:32;;;;;;;0.60;0.20;;;;;;;12.47;100.00;102204.31;2618748;54;20149;-65
2022/11/27 03:42:13;;;;;;;0.53;0.40;;;;;;;12.70;100.00;102203.28;2619364;54;20149;-65
2022/11/27 03:44:48;;;;;;;0.10;0.10;;;;;;;12.84;100.00;102200.06;2618725;54;20148;-65
2022/11/27 03:47:33;;;;;;;0.37;0.37;;;;;;;12.68;100.00;102192.06;2618454;54;20159;-66
2022/11/27 03:50:18;;;;;;;2.00;1.03;;;;;;;12.74;100.00;102194.44;2618607;54;20204;-64
2022/11/27 03:53:00;;;;;;;1.15;0.45;;;;;;;12.81;100.00;102192.38;2617361;54;20157;-65
2022/11/27 03:55:39;;;;;;;0.00;0.00;;;;;;;13.15;100.00;102192.56;2618074;47;20619;-63
2022/11/27 03:58:13;;;;;;;0.08;0.08;;;;;;;13.13;100.00;102191.75;2618744;54;20157;-64
2022/11/27 04:00:46;;;;;;;0.20;0.20;;;;;;;13.58;100.00;102194.78;2619508;54;20157;-64
2022/11/27 04:03:26;;;;;;;0.87;0.83;;;;;;;12.73;100.00;102189.28;2617806;54;20161;-65
2022/11/27 04:05:56;;;;;;;2.27;0.63;;;;;;;12.18;100.00;102187.34;2619058;54;20198;-64
2022/11/27 04:08:27;;;;;;;1.60;0.87;;;;;;;12.12;100.00;102191.97;2617875;54;20155;-64
2022/11/27 04:10:57;;;;;;;0.00;0.00;;;;;;;12.42;100.00;102195.00;2618819;54;20157;-65
2022/11/27 04:13:27;;;;;;;3.60;1.43;;;;;;;12.51;100.00;102195.47;2618140;54;20154;-64
2022/11/27 04:15:57;;;;;;;2.53;2.47;;;;;;;12.69;100.00;102204.19;2619481;39;20612;-64
2022/11/27 04:18:30;;;;;;;0.00;0.00;;;;;;;13.32;100.00;102205.63;2618940;54;20193;-64
2022/11/27 04:21:01;;;;;;;0.20;0.20;;;;;;;13.55;100.00;102210.59;2618693;54;20150;-64
2022/11/27 04:23:31;;;;;;;0.00;0.00;;;;;;;13.50;100.00;102203.91;2620612;54;20708;-64
2022/11/27 04:26:01;;;;;;;0.40;0.30;;;;;;;13.89;100.00;102208.94;2620136;54;20153;-65
2022/11/27 04:28:31;;;;;;;0.03;0.03;;;;;;;13.60;100.00;102207.75;2618552;54;20146;-65
2022/11/27 04:31:01;;;;;;;0.32;0.32;;;;;;;13.52;100.00;102208.13;2618004;54;20149;-65
2022/11/27 04:33:34;;;;;;;0.00;0.00;;;;;;;13.60;100.00;102203.38;2618524;54;20208;-65
2022/11/27 04:36:05;;;;;;;0.00;0.00;;;;;;;13.79;100.00;102215.53;2620692;54;20142;-64
2022/11/27 04:38:35;;;;;;;1.13;0.60;;;;;;;14.01;100.00;102210.91;2617933;54;20146;-64
2022/11/27 04:41:05;;;;;;;0.03;0.03;;;;;;;13.83;100.00;102212.69;2617437;54;20150;-64
2022/11/27 04:43:35;;;;;;;12.07;2.67;;;;;;;13.27;100.00;102212.84;2617731;54;20164;-64
2022/11/27 04:46:05;;;;;;;6.90;1.30;;;;;;;13.24;100.00;102212.94;2618534;54;20160;-64
2022/11/27 04:48:38;;;;;;;0.00;0.00;;;;;;;13.56;100.00;102220.09;2619375;54;20145;-64
2022/11/27 04:51:08;;;;;;;0.57;0.57;;;;;;;13.47;100.00;102220.56;2619920;54;20161;-64
2022/11/27 04:53:39;;;;;;;0.00;0.00;;;;;;;13.72;100.00;102222.78;2619600;54;20149;-64
2022/11/27 04:56:09;;;;;;;0.00;0.00;;;;;;;14.09;100.00;102214.00;2621311;54;20201;-64
2022/11/27 04:58:39;;;;;;;0.00;0.00;;;;;;;13.86;100.00;102212.53;2619102;54;20181;-65
2022/11/27 05:01:10;;;;;;;0.22;0.22;;;;;;;13.76;100.00;102221.72;2619502;54;20160;-64
2022/11/27 05:03:44;;;;;;;0.10;0.10;;;;;;;13.16;100.00;102214.25;2619182;54;20160;-64
2022/11/27 05:06:14;;;;;;;3.37;0.53;;;;;;;12.97;100.00;102219.41;2619415;47;20296;-65
2022/11/27 05:08:44;;;;;;;0.83;0.70;;;;;;;12.79;100.00;102223.72;2619595;54;20157;-64
2022/11/27 05:11:16;;;;;;;2.00;1.40;;;;;;;12.88;100.00;102210.25;2619324;54;20152;-65
2022/11/27 05:13:46;;;;;;;0.83;0.30;;;;;;;13.03;100.00;102219.16;2619658;54;20181;-64
2022/11/27 05:16:17;;;;;;;0.40;0.40;;;;;;;13.13;100.00;102212.63;2618074;54;20161;-64
2022/11/27 05:18:49;;;;;;;0.13;0.13;;;;;;;12.59;100.00;102211.59;2618640;54;20413;-65
2022/11/27 05:21:20;;;;;;;0.20;0.20;;;;;;;11.72;100.00;102214.44;2618336;54;20149;-65
2022/11/27 05:23:50;;;;;;;6.83;0.80;;;;;;;12.03;100.00;102215.78;2618788;54;20197;-64
2022/11/27 05:26:20;;;;;;;3.33;1.90;;;;;;;12.17;100.00;102223.84;2618053;54;20241;-64
2022/11/27 05:28:50;;;;;;;2.80;0.83;;;;;;;12.73;100.00;102216.16;2618805;54;20149;-64
2022/11/27 05:31:20;;;;;;;0.30;0.30;;;;;;;12.71;100.00;102212.81;2619609;54;20158;-64
2022/11/27 05:33:53;;;;;;;3.90;1.43;;;;;;;13.05;100.00;102212.09;2618205;54;20197;-65
2022/11/27 05:36:23;;;;;;;1.20;1.20;;;;;;;11.90;100.00;102207.66;2619341;54;20142;-64
2022/11/27 05:38:53;;;;;;;1.17;1.07;;;;;;;11.50;100.00;102220.53;2618503;54;20149;-64
2022/11/27 05:41:24;;;;;;;3.80;1.97;;;;;;;10.55;100.00;102215.44;2618817;47;20141;-64
2022/11/27 05:43:54;;;;;;;0.40;0.33;;;;;;;10.59;100.00;102213.63;2618003;54;20141;-64
2022/11/27 05:46:25;;;;;;;1.40;1.20;;;;;;;11.27;100.00;102211.88;2618652;54;20153;-64
2022/11/27 05:48:58;;;;;;;0.13;0.13;;;;;;;10.93;100.00;102219.25;2618624;54;20165;-65
2022/11/27 05:51:28;;;;;;;0.50;0.50;;;;;;;10.87;100.00;102224.69;2618261;54;20141;-65
2022/11/27 05:53:58;;;;;;;0.00;0.00;;;;;;;11.61;100.00;102219.19;2618622;54;20150;-64
2022/11/27 05:56:28;;;;;;;0.30;0.30;;;;;;;12.22;100.00;102223.66;2619040;54;20153;-65
2022/11/27 05:58:59;;;;;;;0.23;0.23;;;;;;;12.72;100.00;102224.06;2618821;54;20142;-65
2022/11/27 06:01:29;;;;;;;0.00;0.00;;;;;;;13.11;100.00;102222.28;2618428;54;20149;-65
2022/11/27 06:04:02;;;;;;;0.00;0.00;;;;;;;12.82;100.00;102218.38;2619100;54;20169;-66
2022/11/27 06:06:32;;;;;;;3.10;0.93;;;;;;;12.96;100.00;102213.34;2619331;54;20698;-65
2022/11/27 06:09:02;;;;;;;0.30;0.30;;;;;;;13.10;100.00;102210.16;2619574;54;20201;-64
2022/11/27 06:11:41;;;;;;;0.07;0.07;;;;;;;12.34;100.00;102210.97;2619377;54;20145;-65
2022/11/27 06:14:11;;;;;;;1.07;0.77;;;;;;;12.02;100.00;102221.88;2618986;54;20225;-65
2022/11/27 06:16:41;;;;;;;0.10;0.10;;;;;;;12.51;100.00;102225.84;2619114;54;20164;-64
2022/11/27 06:19:14;;;;;;;2.83;1.75;;;;;;;13.02;100.00;102238.31;2619548;51;20142;-64
2022/11/27 06:21:45;;;;;;;0.40;0.40;;;;;;;13.55;100.00;102234.06;2619137;54;20142;-65
2022/11/27 06:24:15;;;;;;;0.00;0.00;;;;;;;13.51;100.00;102242.09;2618909;54;20157;-64
2022/11/27 06:26:45;;;;;;;0.35;0.30;;;;;;;13.20;100.00;102232.25;2619700;39;20569;-64
2022/11/27 06:29:16;;;;;;;0.43;0.43;;;;;;;13.53;100.00;102238.50;2618613;54;20142;-64
2022/11/27 06:31:46;;;;;;;0.67;0.67;;;;;;;13.06;100.00;102239.84;2618865;54;20145;-65
2022/11/27 06:34:18;;;;;;;0.40;0.40;;;;;;;13.02;100.00;102236.53;2619149;54;20201;-65
2022/11/27 06:36:49;;;;;;;1.27;0.73;;;;;;;11.42;100.00;102232.97;2619427;54;20160;-64
2022/11/27 06:39:19;;;;;;;5.40;0.43;;;;;;;12.22;100.00;102229.72;2619076;54;20154;-64
2022/11/27 06:41:49;;;;;;;5.60;1.67;;;;;;;11.25;100.00;102246.63;2620804;54;20141;-65
2022/11/27 06:44:20;;;;;;;3.03;2.10;;;;;;;11.91;100.00;102244.91;2618704;47;20146;-65
2022/11/27 06:46:50;;;;;;;1.80;0.67;;;;;;;12.13;100.00;102245.69;2617941;54;20142;-65
2022/11/27 06:49:22;;;;;;;2.30;2.20;;;;;;;12.38;100.00;102248.97;2619185;31;20718;-65
2022/11/27 06:51:53;;;;;;;8.37;1.90;;;;;;;12.70;100.00;102246.72;2620082;54;20165;-65
2022/11/27 06:54:23;;;;;;;49.85;1.58;;;;;;;12.32;100.00;102241.41;2619717;54;20181;-64
2022/11/27 06:56:53;;;;;;;0.10;0.10;;;;;;;13.06;100.00;102243.31;2618549;54;20248;-64
2022/11/27 06:59:23;;;;;;;3.37;1.57;;;;;;;13.23;100.00;102242.56;2618515;54;20154;-64
2022/11/27 07:01:53;;;;;;;0.10;0.10;;;;;;;13.21;100.00;102244.38;2256751;36;10000235;-64
2022/11/27 07:04:26;;;;;;;3.63;1.87;;;;;;;12.09;100.00;102249.34;2618970;39;20496;-65
2022/11/27 07:06:57;;;;;;;3.30;2.07;;;;;;;12.07;100.00;102240.75;2617323;54;20156;-64
2022/11/27 07:09:27;;;;;;;1.03;0.93;;;;;;;11.33;100.00;102247.16;2617235;54;20153;-64
2022/11/27 07:11:57;;;;;;;3.23;2.70;;;;;;;10.08;100.00;102268.09;2618754;54;20165;-64
2022/11/27 07:14:28;;;;;;;2.37;2.17;;;;;;;9.71;100.00;102264.09;2616963;54;20141;-65
2022/11/27 07:16:58;;;;;;;10.07;4.30;;;;;;;8.52;100.00;102271.03;2616891;54;20141;-64
2022/11/27 07:19:30;;;;;;;5.83;3.90;;;;;;;8.52;100.00;102263.28;2617357;54;20146;-65
2022/11/27 07:22:00;;;;;;;1.83;1.53;;;;;;;8.84;100.00;102268.41;2618873;31;20760;-64
2022/11/27 07:24:31;;;;;;;3.63;2.70;;;;;;;9.41;100.00;102267.63;2617855;54;20149;-65
2022/11/27 07:27:01;;;;;;;0.93;0.73;;;;;;;11.01;100.00;102266.56;2617859;54;20160;-64
2022/11/27 07:29:31;;;;;;;0.73;0.73;;;;;;;12.46;100.00;102267.69;2617929;54;20169;-64
2022/11/27 07:32:01;;;;;;;0.20;0.10;;;;;;;12.88;100.00;102261.53;2618046;54;20172;-64
2022/11/27 07:34:34;;;;;;;1.03;1.03;;;;;;;13.68;100.00;102256.97;2618413;54;20152;-64
2022/11/27 07:37:04;;;;;;;0.00;0.00;;;;;;;14.20;100.00;102257.84;2617890;54;20158;-64
2022/11/27 07:39:34;;;;;;;0.43;0.43;;;;;;;14.21;100.00;102262.97;2617495;54;20295;-64
2022/11/27 07:42:24;;;;;;;0.00;0.00;;;;;;;13.67;100.00;102258.72;2618388;47;20157;-65
2022/11/27 07:45:11;;;;;;;2.38;2.17;;;;;;;11.76;100.00;102261.94;2618632;54;20228;-65
2022/11/27 07:47:41;;;;;;;3.20;2.17;;;;;;;10.59;100.00;102271.53;2618917;54;20215;-65
2022/11/27 07:50:15;;;;;;;2.63;1.27;;;;;;;10.92;100.00;102263.44;2618527;54;20160;-64
2022/11/27 07:52:45;;;;;;;3.80;2.93;;;;;;;10.64;100.00;102280.03;2618124;54;20158;-64
2022/11/27 07:55:15;;;;;;;5.23;3.23;;;;;;;10.18;100.00;102272.13;2618412;54;20156;-65
2022/11/27 07:57:45;;;;;;;4.93;3.30;;;;;;;9.61;100.00;102277.38;2617893;54;20184;-64
2022/11/27 08:00:17;;;;;;;2.23;2.03;;;;;;;9.57;100.00;102281.81;2617921;54;20675;-65
2022/11/27 08:02:47;;;;;;;4.57;2.67;;;;;;;9.48;100.00;102284.69;2618411;39;20571;-64
2022/11/27 08:05:20;;;;;;;1.20;1.03;;;;;;;9.50;100.00;102276.88;2618835;54;20142;-65
2022/11/27 08:07:50;;;;;;;3.27;2.77;;;;;;;9.34;100.00;102294.63;2619139;54;20710;-64
2022/11/27 08:10:20;;;;;;;2.20;1.60;;;;;;;9.39;100.00;102269.41;2618912;54;20155;-65
2022/11/27 08:12:50;;;;;;;3.83;2.67;;;;;;;9.31;100.00;102272.22;2618431;54;20150;-65
2022/11/27 08:15:21;;;;;;;2.93;1.83;;;;;;;9.02;100.00;102280.00;2617285;54;20158;-65
2022/11/27 08:17:51;;;;;;;6.13;1.53;;;;;;;9.37;100.00;102274.66;2619049;54;20142;-65
2022/11/27 08:20:24;;;;;;;3.83;1.37;;;;;;;9.46;100.00;102276.13;2619266;54;20149;-68
2022/11/27 08:22:54;;;;;;;3.77;1.77;;;;;;;9.39;100.00;102283.22;2619594;54;20295;-65
2022/11/27 08:25:31;;;;;;;6.83;3.03;;;;;;;9.66;100.00;102266.00;2619465;54;20149;-65
2022/11/27 08:28:01;;;;;;;4.67;2.97;;;;;;;9.70;100.00;102274.53;2620320;54;20203;-65
2022/11/27 08:30:31;;;;;;;2.83;2.30;;;;;;;9.62;100.00;102268.72;2618846;54;20602;-66
2022/11/27 08:33:01;;;;;;;5.60;1.80;;;;;;;9.86;100.00;102279.19;2618342;54;20205;-65
2022/11/27 08:35:34;;;;;;;2.10;1.63;;;;;;;9.71;100.00;102273.59;2618843;54;20154;-65
2022/11/27 08:38:05;;;;;;;2.63;1.13;;;;;;;9.89;100.00;102260.06;2619679;54;20150;-64
2022/11/27 08:40:35;;;;;;;2.37;2.17;;;;;;;10.00;100.00;102263.16;2618772;54;20148;-64
2022/11/27 08:43:05;;;;;;;4.43;2.83;;;;;;;10.43;100.00;102265.19;2619923;54;20159;-63
2022/11/27 08:45:35;;;;;;;3.83;1.83;;;;;;;9.67;100.00;102262.47;2618615;54;20153;-65
2022/11/27 08:48:06;;;;;;;4.93;1.30;;;;;;;9.86;100.00;102255.84;2619574;39;20753;-65
2022/11/27 08:50:39;;;;;;;4.63;1.80;;;;;;;9.86;100.00;102255.00;2619063;54;20164;-64
2022/11/27 08:53:09;;;;;;;1.93;1.77;;;;;;;10.54;100.00;102242.31;2619159;54;20676;-64
2022/11/27 08:55:39;;;;;;;1.47;1.13;;;;;;;10.86;100.00;102237.72;2619003;54;20241;-65
2022/11/27 08:58:09;;;;;;;0.63;0.63;;;;;;;10.27;97.90;102249.28;2618820;54;20145;-64
2022/11/27 09:00:40;;;;;;;0.20;0.20;;;;;;;11.12;100.00;102232.38;2618538;54;20146;-65
2022/11/27 09:03:13;;;;;;;0.87;0.87;;;;;;;11.09;100.00;102235.13;2618431;54;20233;-64
2022/11/27 09:05:46;;;;;;;1.17;0.83;;;;;;;11.07;100.00;102229.13;2618719;54;20658;-64
2022/11/27 09:08:19;;;;;;;5.80;2.13;;;;;;;10.61;98.94;102236.00;2618891;54;20202;-66
2022/11/27 09:10:49;;;;;;;0.97;0.90;;;;;;;10.57;100.00;102218.84;2620362;39;20566;-65
2022/11/27 09:13:19;;;;;;;3.37;1.00;;;;;;;10.77;100.00;102226.78;2617634;54;20142;-65
2022/11/27 09:15:50;;;;;;;1.80;1.50;;;;;;;10.34;97.91;102226.59;2618131;54;20150;-64
2022/11/27 09:18:20;;;;;;;1.27;1.27;;;;;;;10.65;100.00;102210.78;2617796;54;20216;-65
2022/11/27 09:21:00;;;;;;;3.00;1.13;;;;;;;10.69;96.51;102227.94;2618038;54;20153;-64
2022/11/27 09:23:31;;;;;;;0.37;0.23;;;;;;;10.95;99.20;102214.03;2618430;54;20146;-64
2022/11/27 09:26:02;;;;;;;3.47;1.20;;;;;;;11.40;99.98;102211.38;2618947;54;20167;-65
2022/11/27 09:28:33;;;;;;;2.70;1.93;;;;;;;10.47;89.41;102196.72;2619221;47;20150;-64
2022/11/27 09:31:06;;;;;;;1.70;1.10;;;;;;;10.21;86.49;102202.81;2618149;54;20153;-64
2022/11/27 09:33:37;;;;;;;0.90;0.80;;;;;;;10.48;92.83;102201.00;2619103;39;20606;-65
2022/11/27 09:36:13;;;;;;;1.03;0.53;;;;;;;11.46;100.00;102193.81;2619391;54;20173;-65
2022/11/27 09:38:43;;;;;;;0.63;0.60;;;;;;;11.75;100.00;102178.81;2619488;54;20232;-65
2022/11/27 09:41:46;;;;;;;0.47;0.43;;;;;;;11.51;100.00;102178.03;2619268;54;20149;-65
2022/11/27 09:44:34;;;;;;;3.50;1.30;;;;;;;11.39;97.83;102171.59;2618667;54;20153;-66
2022/11/27 09:47:13;;;;;;;0.67;0.67;;;;;;;11.26;95.23;102183.38;2225009;36;10000206;-65
2022/11/27 09:49:47;;;;;;;1.73;1.23;;;;;;;10.55;82.67;102170.50;2618750;54;20206;-65
2022/11/27 09:52:25;;;;;;;0.20;0.20;;;;;;;11.70;100.00;102159.03;2620055;54;20141;-65
2022/11/27 09:55:02;;;;;;;2.80;1.67;;;;;;;11.77;100.00;102151.00;2619166;47;20180;-64
2022/11/27 09:57:36;;;;;;;0.40;0.40;;;;;;;11.83;96.46;102163.75;2618099;54;20181;-65
2022/11/27 10:00:08;;;;;;;1.00;0.93;;;;;;;11.69;100.00;102156.47;2618418;54;20148;-64
2022/11/27 10:02:38;;;;;;;2.30;1.40;;;;;;;11.47;82.34;102161.72;2619844;39;20504;-65
2022/11/27 10:05:18;;;;;;;2.67;1.50;;;;;;;11.57;92.78;102146.59;2618281;47;20150;-65
2022/11/27 10:08:16;;;;;;;4.03;1.53;;;;;;;11.61;91.36;102146.41;2618569;54;20149;-65
2022/11/27 10:10:58;;;;;;;2.30;1.47;;;;;;;10.72;81.74;102162.94;2617666;54;20682;-65
2022/11/27 10:13:47;;;;;;;1.00;0.93;;;;;;;10.80;90.56;102151.34;2618859;54;20190;-65
2022/11/27 10:16:25;;;;;;;7.50;2.50;;;;;;;10.09;86.14;102164.31;2619516;54;20157;-66
2022/11/27 10:19:01;;;;;;;2.03;1.63;;;;;;;10.04;86.43;102155.00;2618347;54;20174;-65
2022/11/27 10:21:41;;;;;;;1.17;0.77;;;;;;;10.89;99.71;102159.69;2618886;54;20149;-64
2022/11/27 10:24:23;;;;;;;0.10;0.10;;;;;;;11.11;100.00;102151.00;2618536;47;20701;-65
2022/11/27 10:26:57;;;;;;;1.50;0.57;;;;;;;10.89;98.13;102144.97;2620748;31;20753;-65
2022/11/27 10:29:36;;;;;;;2.83;1.60;;;;;;;11.18;94.57;102136.06;2619337;47;20148;-65
2022/11/27 10:32:13;;;;;;;2.20;0.57;;;;;;;11.34;95.15;102139.72;2618589;54;20175;-64
2022/11/27 10:35:05;;;;;;;2.10;1.00;;;;;;;11.61;100.00;102128.19;2619250;54;20146;-65
2022/11/27 10:37:43;;;;;;;4.97;2.83;;;;;;;10.89;95.94;102137.19;2618461;54;20210;-65
2022/11/27 10:40:24;;;;;;;1.43;1.10;;;;;;;10.97;100.00;102116.09;2618754;54;20141;-64
2022/11/27 10:43:04;;;;;;;4.57;1.97;;;;;;;11.40;100.00;102108.28;2617179;54;20267;-64
2022/11/27 10:45:43;;;;;;;3.43;2.37;;;;;;;10.86;86.80;102126.91;2617659;54;20141;-64
2022/11/27 10:48:15;;;;;;;1.17;1.00;;;;;;;11.18;94.50;102120.47;2618249;54;20693;-65
2022/11/27 10:50:46;;;;;;;3.70;2.50;;;;;;;11.17;96.09;102122.22;2618404;54;20156;-65
2022/11/27 10:53:25;;;;;;;4.13;2.93;;;;;;;10.62;93.06;102123.50;2618354;47;20156;-65
2022/11/27 10:56:16;;;;;;;3.77;1.53;;;;;;;10.48;100.00;102109.31;2618807;47;20157;-65
2022/11/27 10:58:52;;;;;;;1.00;1.00;;;;;;;11.18;100.00;102104.88;2619462;39;20691;-66
2022/11/27 11:01:24;;;;;;;0.83;0.73;;;;;;;11.44;100.00;102099.44;2619045;54;20665;-65
2022/11/27 11:04:07;;;;;;;0.90;0.70;;;;;;;11.85;100.00;102091.69;2619495;54;20157;-65
2022/11/27 11:06:58;;;;;;;3.73;2.67;;;;;;;10.73;89.12;102107.50;2619315;47;20188;-64
2022/11/27 11:09:30;;;;;;;7.03;2.53;;;;;;;11.22;100.00;102101.25;2618710;54;20149;-65
2022/11/27 11:12:11;;;;;;;4.23;1.83;;;;;;;11.19;100.00;102101.38;2618256;54;20150;-65
2022/11/27 11:14:42;;;;;;;1.57;1.47;;;;;;;11.00;99.50;102098.66;2619113;47;20141;-66
2022/11/27 11:17:18;;;;;;;5.70;2.97;;;;;;;10.63;94.26;102088.84;2619141;54;20698;-65
2022/11/27 11:19:49;;;;;;;6.93;3.90;;;;;;;10.69;98.77;102083.44;2619852;54;20149;-65
2022/11/27 11:22:20;;;;;;;4.30;2.40;;;;;;;10.76;89.96;102066.69;2619852;54;20194;-65
2022/11/27 11:24:52;;;;;;;3.30;2.53;;;;;;;10.90;97.37;102078.31;2619629;54;20165;-65
2022/11/27 11:27:29;;;;;;;4.73;2.40;;;;;;;11.12;94.01;102089.53;2619217;54;20161;-65
2022/11/27 11:30:02;;;;;;;2.83;1.77;;;;;;;11.25;97.15;102088.13;2619465;54;20156;-65
2022/11/27 11:32:34;;;;;;;2.67;1.87;;;;;;;11.36;97.52;102072.09;2619637;54;20208;-66
2022/11/27 11:35:10;;;;;;;1.30;1.20;;;;;;;11.69;100.00;102070.69;2619495;54;20149;-65
2022/11/27 11:37:43;;;;;;;3.30;1.93;;;;;;;11.59;93.93;102083.25;2619655;54;20152;-65
2022/11/27 11:40:25;;;;;;;4.40;2.03;;;;;;;11.94;100.00;102080.91;2618947;54;20133;-65
2022/11/27 11:43:00;;;;;;;5.47;1.47;;;;;;;11.26;90.43;102062.09;2619020;39;20521;-64
2022/11/27 11:45:32;;;;;;;2.87;0.67;;;;;;;11.53;92.71;102067.88;2619039;39;20511;-65
2022/11/27 11:48:04;;;;;;;0.50;0.50;;;;;;;11.97;92.10;102065.16;2619308;47;20153;-65
2022/11/27 11:50:39;;;;;;;4.10;1.93;;;;;;;11.44;81.86;102057.88;2619180;54;20730;-65
2022/11/27 11:53:20;;;;;;;1.53;1.47;;;;;;;11.97;100.00;102059.94;2619627;54;20266;-66
2022/11/27 11:56:01;;;;;;;0.90;0.90;;;;;;;12.08;95.45;102053.34;2620544;39;20560;-65
2022/11/27 11:58:51;;;;;;;0.57;0.57;;;;;;;12.56;97.79;102047.66;2620125;54;20141;-66
2022/11/27 12:01:42;;;;;;;3.97;1.87;;;;;;;11.89;86.80;102057.69;2621519;54;20175;-65
2022/11/27 12:04:33;;;;;;;6.87;3.67;;;;;;;11.34;82.58;102051.38;2618894;54;20141;-65
2022/11/27 12:07:13;;;;;;;4.33;3.40;;;;;;;11.71;100.00;102054.13;2618045;54;20142;-65
2022/11/27 12:09:52;;;;;;;3.67;2.23;;;;;;;11.36;91.35;102066.88;2620211;54;20149;-64
2022/11/27 12:12:42;;;;;;;4.13;1.83;;;;;;;11.31;87.00;102050.66;2620675;54;20149;-65
2022/11/27 12:15:23;;;;;;;7.20;2.33;;;;;;;11.34;89.79;102029.75;2620441;54;20163;-66
2022/11/27 12:18:02;;;;;;;1.40;0.97;;;;;;;11.56;95.40;102031.34;2620771;54;20161;-64
2022/11/27 12:20:55;;;;;;;6.23;3.10;;;;;;;11.47;86.48;102023.97;2619261;54;21044;-65
2022/11/27 12:23:54;;;;;;;3.03;1.43;;;;;;;11.55;91.15;102028.84;2618456;47;20194;-65
2022/11/27 12:26:36;;;;;;;2.27;1.60;;;;;;;12.10;95.97;102016.88;2618287;54;20148;-65
2022/11/27 12:29:44;;;;;;;3.20;2.37;;;;;;;12.19;94.55;102019.06;2618662;54;20148;-66
2022/11/27 12:32:35;;;;;;;0.53;0.53;;;;;;;12.30;90.60;102019.41;2618436;54;20251;-65
2022/11/27 12:35:23;;;;;;;2.67;1.77;;;;;;;12.08;90.05;102022.13;2618898;54;20189;-65
2022/11/27 12:38:03;;;;;;;5.50;1.90;;;;;;;12.07;86.53;102017.03;2618005;47;20141;-65
2022/11/27 12:40:46;;;;;;;0.90;0.73;;;;;;;12.74;98.03;102019.06;2617749;54;20133;-66
2022/11/27 12:43:26;;;;;;;2.27;1.07;;;;;;;12.66;89.95;102012.47;2619101;54;20149;-64
2022/11/27 12:46:01;;;;;;;4.37;2.20;;;;;;;11.75;80.46;102000.25;2618727;54;20160;-65
2022/11/27 12:48:40;;;;;;;3.80;2.17;;;;;;;11.43;78.29;102013.78;2618066;54;20141;-66
2022/11/27 12:51:14;;;;;;;2.93;1.70;;;;;;;11.59;85.65;102010.47;2618325;54;20145;-66
2022/11/27 12:53:48;;;;;;;4.23;1.97;;;;;;;11.57;80.12;102009.66;2618895;54;20234;-65
2022/11/27 12:56:25;;;;;;;4.40;3.20;;;;;;;11.34;77.08;102015.00;2619453;54;20674;-65
2022/11/27 12:59:03;;;;;;;3.43;2.73;;;;;;;11.41;85.43;102016.41;2619353;54;20223;-66
2022/11/27 13:01:41;;;;;;;2.27;1.20;;;;;;;11.76;93.09;102003.69;2618614;54;20915;-66
2022/11/27 13:04:23;;;;;;;2.83;1.80;;;;;;;11.84;96.53;102005.03;2618400;54;20250;-65
2022/11/27 13:07:01;;;;;;;0.00;0.00;;;;;;;11.99;100.00;101996.56;2617939;54;20145;-64
2022/11/27 13:09:44;;;;;;;1.17;1.08;;;;;;;12.37;98.31;102002.59;2618209;54;20148;-65
2022/11/27 13:12:22;;;;;;;3.20;2.13;;;;;;;12.16;94.18;101981.00;2618264;54;20141;-65
2022/11/27 13:14:59;;;;;;;2.93;2.07;;;;;;;12.35;98.77;101999.22;2619018;54;20149;-66
2022/11/27 13:17:39;;;;;;;0.63;0.37;;;;;;;12.60;95.16;101999.75;2618627;54;20153;-65
2022/11/27 13:20:22;;;;;;;1.97;1.60;;;;;;;12.60;93.31;102004.94;2619096;54;20156;-64
2022/11/27 13:22:53;;;;;;;0.67;0.67;;;;;;;12.80;92.97;102008.38;2619297;54;20150;-65
2022/11/27 13:25:24;;;;;;;4.05;1.40;;;;;;;12.66;90.73;102016.84;2618388;54;20177;-64
2022/11/27 13:27:56;;;;;;;0.47;0.30;;;;;;;12.84;87.71;102007.31;2619216;54;20150;-67